createdAt,value
2019-04-07T00:00:26.542Z,988.79
2019-04-07T00:01:26.610Z,988.81
2019-04-07T00:02:26.810Z,988.78
2019-04-07T00:03:26.988Z,988.75
2019-04-07T00:04:27.281Z,988.78
2019-04-07T00:05:27.799Z,988.81
2019-04-07T00:06:27.472Z,988.79
2019-04-07T00:07:27.659Z,988.75
2019-04-07T00:08:28.307Z,988.77
2019-04-07T00:09:28.620Z,988.79
2019-04-07T00:10:28.756Z,988.78
2019-04-07T00:11:28.755Z,988.80
2019-04-07T00:12:29.355Z,988.77
2019-04-07T00:13:29.387Z,988.82
2019-04-07T00:14:29.401Z,988.81
2019-04-07T00:15:29.389Z,988.81
2019-04-07T00:16:29.762Z,988.84
2019-04-07T00:17:29.682Z,988.83
2019-04-07T00:18:29.841Z,988.84
2019-04-07T00:19:30.748Z,988.83
2019-04-07T00:20:30.852Z,988.87
2019-04-07T00:21:31.432Z,988.86
2019-04-07T00:22:30.470Z,988.80
2019-04-07T00:23:30.790Z,988.84
2019-04-07T00:24:30.840Z,988.84
2019-04-07T00:25:32.039Z,988.80
2019-04-07T00:26:31.249Z,988.85
2019-04-07T00:27:31.829Z,988.82
2019-04-07T00:28:32.501Z,988.84
2019-04-07T00:29:31.708Z,988.84
2019-04-07T00:30:31.875Z,988.86
2019-04-07T00:31:32.033Z,988.83
2019-04-07T00:32:32.787Z,988.81
2019-04-07T00:33:32.401Z,988.84
2019-04-07T00:34:32.482Z,988.80
2019-04-07T00:35:33.613Z,988.86
2019-04-07T00:36:34.164Z,988.82
2019-04-07T00:37:33.660Z,988.80
2019-04-07T00:38:33.272Z,988.83
2019-04-07T00:39:33.551Z,988.80
2019-04-07T00:40:33.828Z,988.81
2019-04-07T00:41:34.253Z,988.85
2019-04-07T00:42:33.902Z,988.82
2019-04-07T00:43:34.254Z,988.87
2019-04-07T00:44:35.190Z,988.80
2019-04-07T00:45:35.306Z,988.81
2019-04-07T00:46:34.760Z,988.82
2019-04-07T00:47:34.934Z,988.80
2019-04-07T00:48:34.986Z,988.81
2019-04-07T00:49:35.642Z,988.79
2019-04-07T00:50:35.812Z,988.84
2019-04-07T00:51:36.029Z,988.80
2019-04-07T00:52:36.056Z,988.80
2019-04-07T00:53:36.630Z,988.75
2019-04-07T00:54:36.843Z,988.75
2019-04-07T00:55:36.273Z,988.80
2019-04-07T00:56:36.450Z,988.79
2019-04-07T00:57:37.501Z,988.84
2019-04-07T00:58:36.974Z,988.84
2019-04-07T00:59:37.751Z,988.77
2019-04-07T01:00:37.365Z,988.79
2019-04-07T01:01:37.342Z,988.82
2019-04-07T01:02:37.629Z,988.79
2019-04-07T01:03:38.086Z,988.79
2019-04-07T01:04:38.754Z,988.78
2019-04-07T01:05:40.723Z,988.69
2019-04-07T01:06:39.483Z,988.76
2019-04-07T01:07:38.901Z,988.75
2019-04-07T01:08:38.746Z,988.76
2019-04-07T01:09:38.815Z,988.69
2019-04-07T01:10:39.017Z,988.76
2019-04-07T01:11:39.625Z,988.72
2019-04-07T01:12:39.960Z,988.71
2019-04-07T01:13:40.126Z,988.72
2019-04-07T01:14:40.079Z,988.74
2019-04-07T01:15:40.749Z,988.75
2019-04-07T01:16:40.670Z,988.68
2019-04-07T01:17:40.157Z,988.72
2019-04-07T01:18:40.534Z,988.70
2019-04-07T01:19:40.745Z,988.70
2019-04-07T01:20:40.807Z,988.67
2019-04-07T01:21:40.976Z,988.70
2019-04-07T01:22:41.164Z,988.67
2019-04-07T01:23:41.486Z,988.69
2019-04-07T01:24:41.770Z,988.69
2019-04-07T01:25:42.074Z,988.71
2019-04-07T01:26:42.756Z,988.66
2019-04-07T01:27:43.237Z,988.70
2019-04-07T01:28:42.907Z,988.71
2019-04-07T01:29:42.769Z,988.71
2019-04-07T01:30:42.695Z,988.77
2019-04-07T01:31:43.094Z,988.78
2019-04-07T01:32:42.934Z,988.76
2019-04-07T01:33:43.188Z,988.75
2019-04-07T01:34:43.573Z,988.76
2019-04-07T01:35:48.084Z,988.81
2019-04-07T01:36:45.591Z,988.81
2019-04-07T01:37:43.803Z,988.78
2019-04-07T01:38:44.484Z,988.80
2019-04-07T01:39:44.815Z,988.87
2019-04-07T01:40:44.347Z,988.76
2019-04-07T01:41:44.532Z,988.82
2019-04-07T01:42:44.574Z,988.80
2019-04-07T01:43:44.752Z,988.86
2019-04-07T01:44:46.137Z,988.82
2019-04-07T01:45:45.761Z,988.81
2019-04-07T01:46:45.882Z,988.76
2019-04-07T01:47:45.532Z,988.82
2019-04-07T01:48:46.843Z,988.83
2019-04-07T01:49:46.573Z,988.80
2019-04-07T01:50:46.690Z,988.82
2019-04-07T01:51:46.481Z,988.83
2019-04-07T01:52:47.013Z,988.80
2019-04-07T01:53:46.634Z,988.78
2019-04-07T01:54:47.251Z,988.74
2019-04-07T01:55:46.942Z,988.73
2019-04-07T01:56:47.083Z,988.78
2019-04-07T01:57:48.634Z,988.72
2019-04-07T01:58:47.457Z,988.75
2019-04-07T01:59:47.625Z,988.74
2019-04-07T02:00:48.452Z,988.77
2019-04-07T02:01:48.100Z,988.75
2019-04-07T02:02:48.725Z,988.74
2019-04-07T02:03:49.594Z,988.72
2019-04-07T02:04:48.957Z,988.79
2019-04-07T02:05:58.672Z,988.75
2019-04-07T02:06:51.769Z,988.72
2019-04-07T02:07:49.040Z,988.72
2019-04-07T02:08:49.217Z,988.79
2019-04-07T02:09:50.372Z,988.74
2019-04-07T02:10:49.609Z,988.71
2019-04-07T02:11:50.435Z,988.70
2019-04-07T02:12:50.628Z,988.77
2019-04-07T02:13:51.584Z,988.71
2019-04-07T02:14:50.969Z,988.72
2019-04-07T02:15:51.268Z,988.72
2019-04-07T02:16:51.202Z,988.73
2019-04-07T02:17:52.758Z,988.81
2019-04-07T02:18:51.020Z,988.78
2019-04-07T02:19:51.299Z,988.78
2019-04-07T02:20:51.632Z,988.77
2019-04-07T02:21:51.556Z,988.72
2019-04-07T02:22:52.081Z,988.75
2019-04-07T02:23:51.790Z,988.80
2019-04-07T02:24:51.953Z,988.70
2019-04-07T02:25:52.705Z,988.71
2019-04-07T02:26:53.265Z,988.76
2019-04-07T02:27:52.775Z,988.74
2019-04-07T02:28:52.696Z,988.80
2019-04-07T02:29:53.269Z,988.72
2019-04-07T02:30:54.323Z,988.66
2019-04-07T02:31:54.026Z,988.65
2019-04-07T02:32:54.389Z,988.65
2019-04-07T02:33:54.495Z,988.67
2019-04-07T02:34:54.784Z,988.68
2019-04-07T02:35:54.095Z,988.68
2019-04-07T02:36:54.262Z,988.66
2019-04-07T02:37:54.669Z,988.66
2019-04-07T02:38:54.825Z,988.65
2019-04-07T02:39:55.069Z,988.63
2019-04-07T02:40:55.701Z,988.67
2019-04-07T02:41:55.323Z,988.64
2019-04-07T02:42:55.911Z,988.65
2019-04-07T02:43:55.733Z,988.67
2019-04-07T02:44:57.372Z,988.71
2019-04-07T02:45:56.604Z,988.65
2019-04-07T02:46:57.126Z,988.69
2019-04-07T02:47:56.494Z,988.71
2019-04-07T02:48:57.408Z,988.73
2019-04-07T02:49:56.714Z,988.70
2019-04-07T02:50:57.179Z,988.75
2019-04-07T02:51:58.146Z,988.69
2019-04-07T02:52:57.785Z,988.68
2019-04-07T02:53:59.209Z,988.66
2019-04-07T02:54:57.705Z,988.70
2019-04-07T02:55:58.301Z,988.69
2019-04-07T02:56:58.102Z,988.65
2019-04-07T02:57:58.550Z,988.69
2019-04-07T02:58:59.385Z,988.67
2019-04-07T02:59:58.630Z,988.65
2019-04-07T03:00:59.306Z,988.66
2019-04-07T03:01:59.405Z,988.66
2019-04-07T03:02:59.162Z,988.71
2019-04-07T03:04:00.272Z,988.68
2019-04-07T03:04:59.956Z,988.70
2019-04-07T03:05:59.779Z,988.68
2019-04-07T03:07:00.785Z,988.70
2019-04-07T03:08:00.195Z,988.74
2019-04-07T03:09:00.470Z,988.64
2019-04-07T03:10:00.510Z,988.67
2019-04-07T03:11:00.713Z,988.72
2019-04-07T03:12:01.626Z,988.74
2019-04-07T03:13:01.117Z,988.73
2019-04-07T03:14:02.190Z,988.69
2019-04-07T03:15:02.982Z,988.68
2019-04-07T03:16:02.078Z,988.70
2019-04-07T03:17:02.358Z,988.70
2019-04-07T03:18:01.887Z,988.70
2019-04-07T03:19:02.111Z,988.74
2019-04-07T03:20:03.295Z,988.71
2019-04-07T03:21:02.541Z,988.70
2019-04-07T03:22:02.860Z,988.75
2019-04-07T03:23:03.526Z,988.74
2019-04-07T03:24:03.909Z,988.76
2019-04-07T03:25:03.756Z,988.72
2019-04-07T03:26:04.173Z,988.81
2019-04-07T03:27:03.979Z,988.80
2019-04-07T03:28:04.400Z,988.93
2019-04-07T03:29:03.841Z,988.89
2019-04-07T03:30:05.985Z,988.87
2019-04-07T03:31:27.016Z,988.90
2019-04-07T03:32:06.203Z,988.89
2019-04-07T03:33:10.521Z,988.90
2019-04-07T03:34:06.288Z,988.93
2019-04-07T03:35:06.203Z,988.90
2019-04-07T03:36:10.371Z,988.91
2019-04-07T03:37:23.896Z,988.90
2019-04-07T03:38:08.287Z,988.89
2019-04-07T03:39:06.533Z,988.93
2019-04-07T03:40:06.582Z,988.90
2019-04-07T03:41:06.184Z,988.90
2019-04-07T03:42:06.370Z,988.88
2019-04-07T03:43:07.057Z,988.92
2019-04-07T03:44:07.729Z,988.89
2019-04-07T03:45:06.826Z,988.90
2019-04-07T03:46:08.084Z,988.91
2019-04-07T03:47:07.290Z,988.88
2019-04-07T03:48:08.511Z,988.91
2019-04-07T03:49:07.542Z,988.87
2019-04-07T03:50:07.719Z,988.87
2019-04-07T03:51:09.093Z,988.88
2019-04-07T03:52:09.946Z,988.86
2019-04-07T03:53:08.350Z,988.90
2019-04-07T03:54:08.917Z,988.92
2019-04-07T03:55:08.715Z,988.88
2019-04-07T03:56:08.748Z,988.83
2019-04-07T03:57:08.999Z,988.86
2019-04-07T03:58:09.933Z,988.87
2019-04-07T03:59:09.266Z,988.88
2019-04-07T04:00:09.626Z,988.86
2019-04-07T04:01:10.184Z,988.83
2019-04-07T04:02:10.024Z,988.78
2019-04-07T04:03:10.906Z,988.83
2019-04-07T04:04:10.120Z,988.84
2019-04-07T04:05:10.784Z,988.83
2019-04-07T04:06:10.601Z,988.83
2019-04-07T04:07:22.622Z,988.82
2019-04-07T04:08:11.794Z,988.87
2019-04-07T04:09:11.790Z,988.85
2019-04-07T04:10:11.082Z,988.88
2019-04-07T04:11:11.799Z,988.90
2019-04-07T04:12:11.438Z,988.85
2019-04-07T04:13:12.296Z,988.81
2019-04-07T04:14:11.746Z,988.88
2019-04-07T04:15:12.001Z,988.84
2019-04-07T04:16:12.723Z,988.81
2019-04-07T04:17:13.000Z,988.92
2019-04-07T04:18:13.838Z,988.78
2019-04-07T04:19:14.399Z,988.87
2019-04-07T04:20:12.941Z,988.82
2019-04-07T04:21:13.091Z,988.87
2019-04-07T04:22:14.162Z,988.82
2019-04-07T04:23:14.343Z,988.87
2019-04-07T04:24:14.353Z,988.88
2019-04-07T04:25:13.854Z,988.86
2019-04-07T04:26:14.006Z,988.88
2019-04-07T04:27:14.822Z,988.96
2019-04-07T04:28:14.391Z,988.90
2019-04-07T04:29:14.520Z,988.94
2019-04-07T04:30:14.713Z,988.93
2019-04-07T04:31:15.477Z,988.91
2019-04-07T04:32:15.304Z,988.92
2019-04-07T04:33:15.938Z,988.94
2019-04-07T04:34:15.383Z,988.91
2019-04-07T04:35:15.550Z,988.98
2019-04-07T04:36:15.732Z,988.95
2019-04-07T04:37:26.795Z,988.93
2019-04-07T04:38:17.805Z,988.93
2019-04-07T04:39:18.761Z,988.94
2019-04-07T04:40:17.797Z,988.94
2019-04-07T04:41:16.854Z,988.96
2019-04-07T04:42:16.849Z,989.02
2019-04-07T04:43:17.853Z,988.97
2019-04-07T04:44:17.191Z,989.03
2019-04-07T04:45:17.908Z,989.02
2019-04-07T04:46:18.504Z,988.95
2019-04-07T04:47:18.823Z,989.03
2019-04-07T04:48:19.657Z,989.01
2019-04-07T04:49:19.737Z,989.02
2019-04-07T04:50:18.190Z,989.00
2019-04-07T04:51:18.340Z,989.09
2019-04-07T04:52:18.499Z,989.06
2019-04-07T04:53:18.670Z,989.04
2019-04-07T04:54:19.790Z,989.11
2019-04-07T04:55:19.789Z,989.08
2019-04-07T04:56:19.957Z,989.11
2019-04-07T04:57:19.920Z,989.11
2019-04-07T04:58:19.832Z,989.09
2019-04-07T04:59:20.357Z,989.15
2019-04-07T05:00:20.264Z,989.19
2019-04-07T05:01:20.785Z,989.20
2019-04-07T05:02:20.155Z,989.20
2019-04-07T05:03:21.563Z,989.27
2019-04-07T05:04:20.737Z,989.23
2019-04-07T05:05:21.223Z,989.27
2019-04-07T05:06:21.031Z,989.25
2019-04-07T05:07:20.967Z,989.29
2019-04-07T05:08:21.116Z,989.28
2019-04-07T05:09:21.297Z,989.28
2019-04-07T05:10:22.292Z,989.33
2019-04-07T05:11:21.663Z,989.33
2019-04-07T05:12:21.960Z,989.30
2019-04-07T05:13:22.491Z,989.39
2019-04-07T05:14:22.893Z,989.36
2019-04-07T05:15:22.997Z,989.36
2019-04-07T05:16:23.081Z,989.39
2019-04-07T05:17:23.307Z,989.32
2019-04-07T05:18:22.976Z,989.37
2019-04-07T05:19:23.797Z,989.44
2019-04-07T05:20:23.942Z,989.46
2019-04-07T05:21:23.981Z,989.44
2019-04-07T05:22:23.646Z,989.47
2019-04-07T05:23:24.166Z,989.39
2019-04-07T05:24:24.717Z,989.43
2019-04-07T05:25:24.894Z,989.48
2019-04-07T05:26:24.325Z,989.48
2019-04-07T05:27:25.088Z,989.44
2019-04-07T05:28:24.627Z,989.46
2019-04-07T05:29:24.824Z,989.44
2019-04-07T05:30:24.988Z,989.46
2019-04-07T05:31:25.814Z,989.49
2019-04-07T05:32:25.357Z,989.43
2019-04-07T05:33:25.534Z,989.41
2019-04-07T05:34:25.805Z,989.47
2019-04-07T05:35:27.499Z,989.50
2019-04-07T05:36:26.830Z,989.51
2019-04-07T05:37:26.842Z,989.45
2019-04-07T05:38:26.512Z,989.48
2019-04-07T05:39:27.230Z,989.45
2019-04-07T05:40:26.897Z,989.43
2019-04-07T05:41:27.345Z,989.44
2019-04-07T05:42:27.842Z,989.48
2019-04-07T05:43:27.424Z,989.46
2019-04-07T05:44:27.838Z,989.50
2019-04-07T05:45:27.973Z,989.49
2019-04-07T05:46:28.298Z,989.53
2019-04-07T05:47:29.828Z,989.44
2019-04-07T05:48:29.116Z,989.52
2019-04-07T05:49:28.559Z,989.51
2019-04-07T05:50:29.668Z,989.56
2019-04-07T05:51:30.073Z,989.57
2019-04-07T05:52:30.572Z,989.53
2019-04-07T05:53:29.888Z,989.53
2019-04-07T05:54:29.563Z,989.54
2019-04-07T05:55:30.414Z,989.54
2019-04-07T05:56:30.403Z,989.55
2019-04-07T05:57:33.343Z,989.51
2019-04-07T05:58:31.310Z,989.57
2019-04-07T05:59:31.937Z,989.56
2019-04-07T06:00:30.742Z,989.58
2019-04-07T06:01:31.297Z,989.58
2019-04-07T06:02:33.413Z,989.65
2019-04-07T06:03:32.121Z,989.61
2019-04-07T06:04:31.527Z,989.61
2019-04-07T06:05:32.296Z,989.65
2019-04-07T06:06:31.720Z,989.69
2019-04-07T06:07:34.846Z,989.69
2019-04-07T06:08:37.149Z,989.64
2019-04-07T06:09:35.075Z,989.67
2019-04-07T06:10:32.443Z,989.61
2019-04-07T06:11:35.269Z,989.65
2019-04-07T06:12:34.905Z,989.60
2019-04-07T06:13:33.054Z,989.68
2019-04-07T06:14:33.495Z,989.64
2019-04-07T06:15:33.566Z,989.63
2019-04-07T06:16:34.275Z,989.59
2019-04-07T06:17:33.773Z,989.66
2019-04-07T06:18:34.301Z,989.65
2019-04-07T06:19:40.618Z,989.69
2019-04-07T06:20:35.365Z,989.63
2019-04-07T06:21:34.382Z,989.66
2019-04-07T06:22:35.770Z,989.61
2019-04-07T06:23:35.421Z,989.61
2019-04-07T06:24:35.144Z,989.57
2019-04-07T06:25:40.868Z,989.58
2019-04-07T06:26:40.620Z,989.60
2019-04-07T06:27:35.807Z,989.59
2019-04-07T06:28:35.666Z,989.57
2019-04-07T06:29:36.613Z,989.59
2019-04-07T06:30:36.899Z,989.50
2019-04-07T06:31:38.100Z,989.55
2019-04-07T06:32:38.394Z,989.56
2019-04-07T06:33:39.265Z,989.53
2019-04-07T06:34:39.890Z,989.54
2019-04-07T06:35:38.977Z,989.53
2019-04-07T06:36:37.469Z,989.55
2019-04-07T06:37:37.620Z,989.42
2019-04-07T06:38:41.544Z,989.45
2019-04-07T06:39:40.658Z,989.46
2019-04-07T06:40:38.065Z,989.45
2019-04-07T06:41:38.949Z,989.46
2019-04-07T06:42:38.790Z,989.51
2019-04-07T06:43:40.134Z,989.45
2019-04-07T06:44:40.003Z,989.47
2019-04-07T06:45:39.921Z,989.47
2019-04-07T06:46:40.088Z,989.46
2019-04-07T06:47:39.805Z,989.48
2019-04-07T06:48:40.609Z,989.45
2019-04-07T06:49:44.682Z,989.44
2019-04-07T06:50:49.372Z,989.43
2019-04-07T06:51:42.405Z,989.46
2019-04-07T06:52:41.779Z,989.48
2019-04-07T06:53:41.621Z,989.47
2019-04-07T06:54:40.876Z,989.48
2019-04-07T06:55:41.715Z,989.46
2019-04-07T06:56:41.291Z,989.49
2019-04-07T06:57:41.690Z,989.48
2019-04-07T06:58:42.913Z,989.45
2019-04-07T06:59:45.656Z,989.40
2019-04-07T07:00:44.322Z,989.39
2019-04-07T07:01:42.739Z,989.38
2019-04-07T07:02:44.294Z,989.41
2019-04-07T07:03:43.400Z,989.41
2019-04-07T07:04:45.447Z,989.42
2019-04-07T07:05:45.836Z,989.43
2019-04-07T07:06:46.103Z,989.47
2019-04-07T07:07:45.821Z,989.39
2019-04-07T07:08:47.282Z,989.45
2019-04-07T07:09:44.367Z,989.45
2019-04-07T07:10:43.504Z,989.48
2019-04-07T07:11:44.533Z,989.41
2019-04-07T07:12:43.910Z,989.42
2019-04-07T07:13:45.054Z,989.45
2019-04-07T07:14:46.945Z,989.37
2019-04-07T07:15:47.095Z,989.46
2019-04-07T07:16:46.705Z,989.46
2019-04-07T07:17:47.861Z,989.36
2019-04-07T07:18:47.074Z,989.43
2019-04-07T07:19:45.135Z,989.30
2019-04-07T07:20:45.285Z,989.38
2019-04-07T07:21:46.792Z,989.35
2019-04-07T07:22:47.559Z,989.36
2019-04-07T07:23:48.890Z,989.33
2019-04-07T07:24:47.813Z,989.37
2019-04-07T07:25:47.529Z,989.34
2019-04-07T07:26:46.355Z,989.34
2019-04-07T07:27:46.567Z,989.34
2019-04-07T07:28:47.004Z,989.34
2019-04-07T07:29:47.694Z,989.31
2019-04-07T07:30:51.889Z,989.30
2019-04-07T07:31:51.138Z,989.27
2019-04-07T07:32:47.460Z,989.31
2019-04-07T07:33:47.631Z,989.32
2019-04-07T07:34:47.938Z,989.27
2019-04-07T07:35:49.180Z,989.26
2019-04-07T07:36:52.275Z,989.28
2019-04-07T07:37:50.983Z,989.24
2019-04-07T07:38:57.522Z,989.27
2019-04-07T07:39:50.854Z,989.23
2019-04-07T07:40:50.138Z,989.19
2019-04-07T07:41:51.666Z,989.19
2019-04-07T07:42:51.107Z,989.18
2019-04-07T07:43:50.440Z,989.22
2019-04-07T07:44:50.340Z,989.16
2019-04-07T07:45:50.147Z,989.18
2019-04-07T07:46:51.513Z,989.15
2019-04-07T07:47:53.772Z,989.21
2019-04-07T07:48:52.188Z,989.16
2019-04-07T07:49:52.021Z,989.22
2019-04-07T07:50:51.209Z,989.28
2019-04-07T07:51:51.817Z,989.25
2019-04-07T07:52:54.411Z,989.24
2019-04-07T07:53:52.667Z,989.20
2019-04-07T07:54:51.891Z,989.26
2019-04-07T07:55:51.823Z,989.25
2019-04-07T07:56:52.512Z,989.23
2019-04-07T07:57:56.764Z,989.28
2019-04-07T07:58:53.918Z,989.30
2019-04-07T07:59:52.383Z,989.26
2019-04-07T08:00:52.570Z,989.24
2019-04-07T08:01:53.412Z,989.27
2019-04-07T08:02:54.632Z,989.28
2019-04-07T08:03:55.413Z,989.28
2019-04-07T08:04:56.745Z,989.28
2019-04-07T08:05:54.349Z,989.31
2019-04-07T08:06:53.489Z,989.24
2019-04-07T08:07:54.054Z,989.25
2019-04-07T08:09:01.160Z,989.24
2019-04-07T08:09:56.596Z,989.22
2019-04-07T08:10:58.569Z,989.27
2019-04-07T08:11:56.255Z,989.27
2019-04-07T08:12:54.498Z,989.23
2019-04-07T08:13:55.428Z,989.27
2019-04-07T08:14:57.261Z,989.25
2019-04-07T08:15:57.097Z,989.25
2019-04-07T08:16:56.127Z,989.21
2019-04-07T08:17:55.284Z,989.20
2019-04-07T08:18:57.173Z,989.27
2019-04-07T08:19:56.730Z,989.31
2019-04-07T08:20:55.761Z,989.25
2019-04-07T08:21:55.910Z,989.32
2019-04-07T08:22:56.206Z,989.30
2019-04-07T08:23:56.876Z,989.24
2019-04-07T08:24:56.383Z,989.32
2019-04-07T08:25:58.857Z,989.28
2019-04-07T08:26:59.022Z,989.27
2019-04-07T08:27:58.173Z,989.24
2019-04-07T08:28:56.983Z,989.24
2019-04-07T08:29:57.230Z,989.22
2019-04-07T08:30:57.534Z,989.21
2019-04-07T08:31:57.653Z,989.26
2019-04-07T08:33:00.284Z,989.24
2019-04-07T08:34:00.046Z,989.19
2019-04-07T08:35:02.081Z,989.22
2019-04-07T08:36:00.415Z,989.09
2019-04-07T08:36:58.537Z,989.18
2019-04-07T08:37:58.574Z,989.21
2019-04-07T08:38:59.495Z,989.17
2019-04-07T08:39:59.438Z,989.22
2019-04-07T08:40:59.095Z,989.21
2019-04-07T08:42:01.138Z,989.14
2019-04-07T08:42:59.451Z,989.14
2019-04-07T08:43:59.847Z,989.17
2019-04-07T08:45:00.638Z,989.19
2019-04-07T08:46:03.843Z,989.20
2019-04-07T08:47:02.620Z,989.16
2019-04-07T08:48:01.329Z,989.22
2019-04-07T08:49:00.548Z,989.19
2019-04-07T08:50:00.731Z,989.20
2019-04-07T08:51:01.117Z,989.08
2019-04-07T08:52:07.287Z,989.06
2019-04-07T08:53:02.252Z,989.04
2019-04-07T08:54:04.148Z,989.15
2019-04-07T08:55:01.894Z,989.09
2019-04-07T08:56:01.642Z,989.12
2019-04-07T08:57:01.766Z,989.19
2019-04-07T08:58:03.658Z,989.09
2019-04-07T08:59:03.787Z,989.04
2019-04-07T09:00:03.803Z,989.08
2019-04-07T09:01:03.358Z,989.02
2019-04-07T09:02:03.171Z,989.14
2019-04-07T09:03:07.803Z,989.08
2019-04-07T09:04:06.639Z,989.07
2019-04-07T09:05:03.216Z,989.09
2019-04-07T09:06:04.582Z,989.04
2019-04-07T09:07:05.113Z,989.04
2019-04-07T09:08:06.107Z,988.98
2019-04-07T09:09:07.305Z,989.03
2019-04-07T09:10:04.241Z,989.03
2019-04-07T09:11:04.669Z,988.99
2019-04-07T09:12:04.861Z,988.97
2019-04-07T09:13:07.773Z,989.06
2019-04-07T09:14:07.632Z,989.09
2019-04-07T09:15:09.453Z,989.05
2019-04-07T09:16:06.345Z,989.08
2019-04-07T09:17:05.521Z,989.09
2019-04-07T09:18:05.718Z,988.96
2019-04-07T09:19:07.383Z,989.07
2019-04-07T09:20:10.390Z,989.07
2019-04-07T09:21:07.862Z,989.02
2019-04-07T09:22:07.378Z,989.07
2019-04-07T09:23:07.104Z,989.00
2019-04-07T09:24:08.276Z,989.05
2019-04-07T09:25:09.260Z,989.05
2019-04-07T09:26:11.085Z,989.02
2019-04-07T09:27:13.951Z,989.06
2019-04-07T09:28:08.771Z,988.98
2019-04-07T09:29:08.378Z,989.09
2019-04-07T09:30:10.086Z,989.09
2019-04-07T09:31:09.173Z,989.07
2019-04-07T09:32:08.425Z,989.07
2019-04-07T09:33:08.547Z,989.10
2019-04-07T09:34:09.148Z,989.03
2019-04-07T09:35:09.755Z,989.13
2019-04-07T09:36:09.080Z,989.06
2019-04-07T09:37:09.690Z,989.07
2019-04-07T09:38:09.840Z,988.97
2019-04-07T09:39:09.416Z,989.08
2019-04-07T09:40:09.548Z,989.04
2019-04-07T09:41:09.704Z,989.02
2019-04-07T09:42:09.850Z,989.02
2019-04-07T09:43:10.089Z,988.99
2019-04-07T09:44:10.366Z,988.98
2019-04-07T09:45:11.594Z,988.97
2019-04-07T09:46:11.818Z,989.02
2019-04-07T09:47:15.936Z,989.03
2019-04-07T09:48:10.807Z,988.99
2019-04-07T09:49:11.010Z,989.04
2019-04-07T09:50:11.393Z,989.02
2019-04-07T09:51:11.313Z,989.04
2019-04-07T09:52:15.011Z,989.02
2019-04-07T09:53:13.821Z,989.02
2019-04-07T09:54:12.261Z,988.98
2019-04-07T09:55:12.995Z,988.95
2019-04-07T09:56:12.957Z,988.98
2019-04-07T09:57:14.093Z,988.94
2019-04-07T09:58:12.569Z,988.89
2019-04-07T09:59:16.764Z,988.99
2019-04-07T10:00:14.910Z,988.97
2019-04-07T10:01:15.445Z,988.94
2019-04-07T10:02:14.560Z,988.89
2019-04-07T10:03:15.154Z,988.86
2019-04-07T10:04:14.610Z,988.82
2019-04-07T10:05:13.859Z,988.81
2019-04-07T10:06:13.980Z,988.84
2019-04-07T10:07:16.019Z,988.90
2019-04-07T10:08:18.275Z,988.80
2019-04-07T10:09:15.797Z,988.86
2019-04-07T10:10:14.980Z,988.88
2019-04-07T10:11:16.054Z,988.85
2019-04-07T10:12:15.175Z,988.91
2019-04-07T10:13:16.323Z,988.84
2019-04-07T10:14:15.221Z,988.99
2019-04-07T10:15:15.462Z,988.93
2019-04-07T10:16:16.482Z,988.88
2019-04-07T10:17:16.580Z,988.79
2019-04-07T10:18:16.792Z,988.86
2019-04-07T10:19:16.205Z,988.90
2019-04-07T10:20:16.863Z,988.96
2019-04-07T10:21:17.365Z,988.91
2019-04-07T10:22:17.555Z,988.93
2019-04-07T10:23:16.746Z,988.93
2019-04-07T10:24:19.692Z,988.94
2019-04-07T10:25:17.114Z,988.94
2019-04-07T10:26:17.898Z,988.92
2019-04-07T10:27:18.704Z,988.94
2019-04-07T10:28:17.759Z,988.94
2019-04-07T10:29:18.628Z,988.84
2019-04-07T10:30:17.937Z,988.85
2019-04-07T10:31:19.794Z,988.84
2019-04-07T10:32:19.996Z,988.83
2019-04-07T10:33:19.358Z,988.69
2019-04-07T10:34:18.614Z,988.80
2019-04-07T10:35:18.981Z,988.81
2019-04-07T10:36:19.478Z,988.83
2019-04-07T10:37:19.868Z,988.79
2019-04-07T10:38:20.010Z,988.87
2019-04-07T10:39:19.842Z,988.70
2019-04-07T10:40:22.152Z,988.75
2019-04-07T10:41:21.752Z,988.82
2019-04-07T10:42:20.186Z,988.72
2019-04-07T10:43:20.211Z,988.69
2019-04-07T10:44:21.336Z,988.75
2019-04-07T10:45:20.712Z,988.67
2019-04-07T10:46:21.508Z,988.67
2019-04-07T10:47:21.174Z,988.63
2019-04-07T10:48:21.002Z,988.74
2019-04-07T10:49:22.663Z,988.69
2019-04-07T10:50:22.188Z,988.79
2019-04-07T10:51:21.487Z,988.80
2019-04-07T10:52:21.882Z,988.80
2019-04-07T10:53:22.704Z,988.73
2019-04-07T10:54:22.196Z,988.72
2019-04-07T10:55:22.234Z,988.74
2019-04-07T10:56:23.536Z,988.80
2019-04-07T10:57:23.161Z,988.79
2019-04-07T10:58:23.050Z,988.82
2019-04-07T10:59:23.538Z,988.80
2019-04-07T11:00:24.063Z,988.72
2019-04-07T11:01:23.379Z,988.76
2019-04-07T11:02:23.775Z,988.77
2019-04-07T11:03:23.734Z,988.82
2019-04-07T11:04:24.014Z,988.72
2019-04-07T11:05:24.475Z,988.64
2019-04-07T11:06:24.254Z,988.72
2019-04-07T11:07:24.944Z,988.65
2019-04-07T11:08:25.303Z,988.68
2019-04-07T11:09:25.590Z,988.74
2019-04-07T11:10:34.629Z,988.71
2019-04-07T11:11:27.183Z,988.62
2019-04-07T11:12:25.304Z,988.66
2019-04-07T11:13:25.456Z,988.46
2019-04-07T11:14:26.952Z,988.60
2019-04-07T11:15:25.952Z,988.51
2019-04-07T11:16:26.282Z,988.58
2019-04-07T11:17:26.098Z,988.52
2019-04-07T11:18:27.627Z,988.45
2019-04-07T11:19:28.411Z,988.48
2019-04-07T11:20:28.006Z,988.49
2019-04-07T11:21:26.728Z,988.55
2019-04-07T11:22:26.902Z,988.55
2019-04-07T11:23:27.055Z,988.52
2019-04-07T11:24:27.794Z,988.55
2019-04-07T11:25:27.614Z,988.55
2019-04-07T11:26:27.573Z,988.62
2019-04-07T11:27:27.789Z,988.48
2019-04-07T11:28:29.054Z,988.54
2019-04-07T11:29:29.891Z,988.43
2019-04-07T11:30:28.869Z,988.52
2019-04-07T11:31:28.535Z,988.44
2019-04-07T11:32:28.914Z,988.48
2019-04-07T11:33:29.048Z,988.35
2019-04-07T11:34:29.302Z,988.48
2019-04-07T11:35:30.749Z,988.48
2019-04-07T11:36:29.849Z,988.48
2019-04-07T11:37:29.523Z,988.41
2019-04-07T11:38:29.685Z,988.45
2019-04-07T11:39:30.715Z,988.41
2019-04-07T11:40:41.549Z,988.43
2019-04-07T11:41:31.667Z,988.41
2019-04-07T11:42:30.657Z,988.41
2019-04-07T11:43:30.556Z,988.37
2019-04-07T11:44:31.273Z,988.34
2019-04-07T11:45:31.405Z,988.38
2019-04-07T11:46:31.890Z,988.44
2019-04-07T11:47:31.760Z,988.43
2019-04-07T11:48:31.889Z,988.44
2019-04-07T11:49:31.591Z,988.50
2019-04-07T11:50:32.614Z,988.45
2019-04-07T11:51:32.450Z,988.45
2019-04-07T11:52:32.104Z,988.34
2019-04-07T11:53:32.973Z,988.41
2019-04-07T11:54:32.731Z,988.41
2019-04-07T11:55:33.374Z,988.46
2019-04-07T11:56:32.739Z,988.26
2019-04-07T11:57:33.471Z,988.44
2019-04-07T11:58:34.513Z,988.40
2019-04-07T11:59:34.927Z,988.31
2019-04-07T12:00:33.418Z,988.36
2019-04-07T12:01:33.852Z,988.33
2019-04-07T12:02:33.710Z,988.28
2019-04-07T12:03:34.313Z,988.31
2019-04-07T12:04:34.544Z,988.44
2019-04-07T12:05:34.277Z,988.22
2019-04-07T12:06:35.314Z,988.32
2019-04-07T12:07:34.613Z,988.39
2019-04-07T12:08:36.285Z,988.39
2019-04-07T12:09:36.253Z,988.40
2019-04-07T12:10:35.903Z,988.39
2019-04-07T12:11:36.245Z,988.40
2019-04-07T12:12:35.646Z,988.51
2019-04-07T12:13:35.733Z,988.57
2019-04-07T12:14:36.318Z,988.54
2019-04-07T12:15:36.085Z,988.35
2019-04-07T12:16:37.024Z,988.30
2019-04-07T12:17:39.469Z,988.38
2019-04-07T12:18:37.631Z,988.39
2019-04-07T12:19:36.799Z,988.32
2019-04-07T12:20:37.618Z,988.18
2019-04-07T12:21:38.260Z,988.10
2019-04-07T12:22:38.007Z,988.25
2019-04-07T12:23:38.244Z,988.34
2019-04-07T12:24:38.001Z,988.31
2019-04-07T12:25:38.457Z,988.15
2019-04-07T12:26:41.919Z,988.28
2019-04-07T12:27:42.912Z,988.10
2019-04-07T12:28:40.066Z,988.18
2019-04-07T12:29:39.778Z,988.15
2019-04-07T12:30:39.102Z,988.16